createdAt,value
2023-03-02T00:01:37.802Z,12.57
2023-03-02T00:07:45.293Z,13.15
2023-03-02T00:10:11.912Z,12.95
2023-03-02T00:12:38.495Z,13.88
2023-03-02T00:15:05.509Z,14.30
2023-03-02T00:17:32.026Z,12.30
2023-03-02T00:20:09.869Z,12.45
2023-03-02T00:22:38.044Z,12.57
2023-03-02T00:25:05.360Z,14.02
2023-03-02T00:27:32.056Z,12.70
2023-03-02T00:29:58.637Z,12.17
2023-03-02T00:32:25.679Z,13.35
2023-03-02T00:34:52.464Z,15.27
2023-03-02T00:37:20.648Z,13.98
2023-03-02T00:39:47.163Z,14.52
2023-03-02T00:42:13.666Z,13.90
2023-03-02T00:44:40.305Z,12.07
2023-03-02T00:47:06.852Z,12.95
2023-03-02T00:49:33.466Z,15.18
2023-03-02T00:51:59.963Z,16.67
2023-03-02T00:54:26.639Z,15.87
2023-03-02T00:56:53.172Z,14.02
2023-03-02T00:59:28.746Z,15.07
2023-03-02T01:01:58.342Z,13.90
2023-03-02T01:04:31.290Z,14.70
2023-03-02T01:06:59.628Z,13.47
2023-03-02T01:09:27.015Z,15.25
2023-03-02T01:11:54.273Z,15.75
2023-03-02T01:14:21.751Z,16.33
2023-03-02T01:16:49.846Z,15.35
2023-03-02T01:19:17.286Z,14.00
2023-03-02T01:21:44.251Z,14.48
2023-03-02T01:24:11.516Z,14.40
2023-03-02T01:26:41.282Z,15.23
2023-03-02T01:29:08.003Z,14.60
2023-03-02T01:31:34.549Z,18.83
2023-03-02T01:34:01.165Z,16.75
2023-03-02T01:36:31.199Z,15.60
2023-03-02T01:38:57.859Z,14.35
2023-03-02T01:41:24.606Z,15.93
2023-03-02T01:43:51.171Z,15.23
2023-03-02T01:46:27.045Z,15.15
2023-03-02T01:49:01.247Z,15.82
2023-03-02T01:51:30.604Z,15.15
2023-03-02T01:54:03.338Z,15.50
2023-03-02T01:56:36.123Z,15.33
2023-03-02T01:59:07.655Z,15.10
2023-03-02T02:01:37.921Z,13.88
2023-03-02T02:04:04.713Z,15.65
2023-03-02T02:07:02.347Z,13.90
2023-03-02T02:09:33.571Z,13.90
2023-03-02T02:12:00.254Z,13.10
2023-03-02T02:17:32.980Z,13.98
2023-03-02T02:20:19.583Z,14.40
2023-03-02T02:23:25.770Z,12.43
2023-03-02T02:25:58.335Z,14.38
2023-03-02T02:28:33.713Z,15.02
2023-03-02T02:31:33.622Z,14.48
2023-03-02T02:34:08.974Z,14.35
2023-03-02T02:36:44.598Z,13.37
2023-03-02T02:39:19.263Z,13.80
2023-03-02T02:41:47.523Z,15.20
2023-03-02T02:44:17.270Z,13.45
2023-03-02T02:46:45.013Z,13.57
2023-03-02T02:49:29.949Z,11.73
2023-03-02T02:51:56.811Z,13.48
2023-03-02T02:54:23.559Z,13.07
2023-03-02T02:56:53.046Z,14.10
2023-03-02T02:59:26.829Z,12.52
2023-03-02T03:01:53.344Z,13.87
2023-03-02T03:04:28.348Z,15.25
2023-03-02T03:06:56.298Z,12.73
2023-03-02T03:09:23.522Z,11.50
2023-03-02T03:11:56.699Z,14.65
2023-03-02T03:14:29.208Z,12.73
2023-03-02T03:16:55.777Z,10.90
2023-03-02T03:19:24.461Z,12.77
2023-03-02T03:21:54.609Z,12.65
2023-03-02T03:24:21.839Z,14.15
2023-03-02T03:26:48.532Z,10.60
2023-03-02T03:29:17.104Z,14.00
2023-03-02T03:31:43.922Z,12.60
2023-03-02T03:34:11.079Z,13.93
2023-03-02T03:36:37.858Z,13.27
2023-03-02T03:39:06.008Z,11.93
2023-03-02T03:41:33.147Z,11.02
2023-03-02T03:43:59.876Z,13.45
2023-03-02T03:46:26.332Z,13.48
2023-03-02T03:48:52.897Z,13.02
2023-03-02T03:51:19.655Z,10.57
2023-03-02T03:56:43.302Z,12.27
2023-03-02T03:59:12.364Z,11.15
2023-03-02T04:01:51.782Z,12.35
2023-03-02T04:04:22.842Z,11.80
2023-03-02T04:06:49.999Z,11.18
2023-03-02T04:09:19.370Z,12.55
2023-03-02T04:11:48.806Z,12.38
2023-03-02T04:14:18.417Z,12.55
2023-03-02T04:16:44.908Z,11.53
2023-03-02T04:19:12.371Z,11.90
2023-03-02T04:21:42.186Z,11.48
2023-03-02T04:24:10.025Z,10.10
2023-03-02T04:26:37.551Z,11.70
2023-03-02T04:29:04.338Z,10.97
2023-03-02T04:31:31.355Z,11.35
2023-03-02T04:33:58.760Z,10.32
2023-03-02T04:36:25.927Z,11.18
2023-03-02T04:38:53.036Z,11.98
2023-03-02T04:41:19.569Z,11.40
2023-03-02T04:43:46.010Z,10.32
2023-03-02T04:46:19.972Z,11.00
2023-03-02T04:48:46.560Z,9.80
2023-03-02T04:51:24.183Z,12.52
2023-03-02T04:54:01.166Z,11.00
2023-03-02T04:56:27.968Z,11.68
2023-03-02T04:58:55.741Z,10.90
2023-03-02T05:01:22.883Z,11.63
2023-03-02T05:03:49.514Z,9.77
2023-03-02T05:06:16.114Z,10.80
2023-03-02T05:08:43.755Z,10.38
2023-03-02T05:11:15.875Z,12.70
2023-03-02T05:13:42.311Z,11.52
2023-03-02T05:16:08.794Z,13.48
2023-03-02T05:18:35.266Z,11.90
2023-03-02T05:21:01.839Z,11.13
2023-03-02T05:23:33.505Z,12.55
2023-03-02T05:26:00.195Z,13.55
2023-03-02T05:28:27.634Z,14.43
2023-03-02T05:30:54.693Z,9.67
2023-03-02T05:33:21.861Z,11.70
2023-03-02T05:35:48.960Z,10.65
2023-03-02T05:38:15.638Z,12.30
2023-03-02T05:40:45.321Z,10.07
2023-03-02T05:43:16.760Z,12.13
2023-03-02T05:45:43.278Z,12.05
2023-03-02T05:48:14.750Z,13.25
2023-03-02T05:50:41.373Z,11.48
2023-03-02T05:53:08.196Z,11.98
2023-03-02T05:55:37.101Z,11.27
2023-03-02T05:58:09.084Z,11.57
2023-03-02T06:00:36.051Z,11.68
2023-03-02T06:03:02.550Z,11.68
2023-03-02T06:05:29.032Z,11.70
2023-03-02T06:07:56.119Z,12.50
2023-03-02T06:10:23.335Z,13.63
2023-03-02T06:12:50.205Z,12.70
2023-03-02T06:15:16.860Z,13.68
2023-03-02T06:17:43.447Z,11.73
2023-03-02T06:20:11.066Z,9.93
2023-03-02T06:22:45.288Z,12.23
2023-03-02T06:25:18.159Z,11.70
2023-03-02T06:27:45.494Z,10.80
2023-03-02T06:30:15.480Z,11.32
2023-03-02T06:32:42.767Z,10.00
2023-03-02T06:35:10.574Z,10.95
2023-03-02T06:37:37.208Z,12.00
2023-03-02T06:40:11.079Z,12.32
2023-03-02T06:42:38.588Z,10.77
2023-03-02T06:45:06.738Z,12.53
2023-03-02T06:47:33.871Z,12.30
2023-03-02T06:50:01.043Z,12.43
2023-03-02T06:52:27.619Z,11.68
2023-03-02T06:54:55.038Z,12.52
2023-03-02T06:57:21.648Z,11.90
2023-03-02T06:59:48.099Z,10.75
2023-03-02T07:02:14.565Z,12.95
2023-03-02T07:04:41.059Z,13.32
2023-03-02T07:07:07.549Z,12.18
2023-03-02T07:09:34.502Z,10.87
2023-03-02T07:12:01.141Z,11.00
2023-03-02T07:14:27.671Z,12.57
2023-03-02T07:16:56.726Z,12.00
2023-03-02T07:19:23.328Z,12.25
2023-03-02T07:21:49.883Z,13.40
2023-03-02T07:24:16.365Z,10.98
2023-03-02T07:26:42.813Z,11.35
2023-03-02T07:29:09.268Z,11.52
2023-03-02T07:31:35.846Z,12.07
2023-03-02T07:34:02.256Z,11.37
2023-03-02T07:36:28.729Z,10.10
2023-03-02T07:38:55.205Z,13.77
2023-03-02T07:41:22.792Z,10.57
2023-03-02T07:43:49.329Z,12.60
2023-03-02T07:46:16.167Z,11.30
2023-03-02T07:48:42.762Z,10.73
2023-03-02T07:51:09.200Z,10.15
2023-03-02T07:53:35.663Z,11.07
2023-03-02T07:56:07.709Z,10.63
2023-03-02T07:58:35.328Z,10.40
2023-03-02T08:01:01.995Z,10.75
2023-03-02T08:03:28.608Z,9.52
2023-03-02T08:05:55.124Z,9.10
2023-03-02T08:08:21.672Z,10.25
2023-03-02T08:10:48.171Z,9.37
2023-03-02T08:13:14.636Z,11.00
2023-03-02T08:15:41.124Z,9.52
2023-03-02T08:18:07.699Z,9.75
2023-03-02T08:20:34.161Z,8.95
2023-03-02T08:23:00.616Z,10.30
2023-03-02T08:25:27.104Z,8.90
2023-03-02T08:27:53.650Z,8.02
2023-03-02T08:30:20.211Z,9.80
2023-03-02T08:32:46.898Z,10.48
2023-03-02T08:35:13.448Z,8.70
2023-03-02T08:37:39.895Z,9.65
2023-03-02T08:40:07.133Z,8.20
2023-03-02T08:42:33.563Z,9.65
2023-03-02T08:45:00.016Z,9.90
2023-03-02T08:47:26.637Z,6.23
2023-03-02T08:49:53.152Z,10.02
2023-03-02T08:52:19.709Z,8.32
2023-03-02T08:54:46.193Z,8.48
2023-03-02T08:57:13.068Z,9.20
2023-03-02T08:59:39.911Z,8.17
2023-03-02T09:02:07.014Z,9.75
2023-03-02T09:04:34.394Z,8.38
2023-03-02T09:07:00.850Z,7.32
2023-03-02T09:09:27.325Z,9.23
2023-03-02T09:11:53.808Z,8.53
2023-03-02T09:14:20.407Z,9.05
2023-03-02T09:16:47.323Z,10.50
2023-03-02T09:19:14.559Z,10.20
2023-03-02T09:21:41.105Z,9.20
2023-03-02T09:24:07.821Z,9.63
2023-03-02T09:26:34.968Z,10.18
2023-03-02T09:29:01.865Z,10.63
2023-03-02T09:31:30.205Z,10.77
2023-03-02T09:33:57.105Z,11.27
2023-03-02T09:36:25.341Z,8.87
2023-03-02T09:38:51.961Z,9.88
2023-03-02T09:41:21.455Z,8.73
2023-03-02T09:44:09.770Z,7.35
2023-03-02T09:46:47.880Z,8.57
2023-03-02T09:49:28.501Z,7.57
2023-03-02T09:52:11.747Z,9.27
2023-03-02T09:54:38.873Z,8.07
2023-03-02T09:57:20.842Z,7.40
2023-03-02T09:59:59.870Z,7.30
2023-03-02T10:02:41.486Z,10.07
2023-03-02T10:05:16.428Z,7.70
2023-03-02T10:07:43.219Z,8.27
2023-03-02T10:10:24.553Z,7.78
2023-03-02T10:13:12.230Z,7.68
2023-03-02T10:15:48.982Z,7.70
2023-03-02T10:18:24.950Z,8.43
2023-03-02T10:20:56.764Z,7.30
2023-03-02T10:23:30.392Z,7.03
2023-03-02T10:26:20.832Z,9.10
2023-03-02T10:28:49.930Z,7.83
2023-03-02T10:31:28.007Z,7.93
2023-03-02T10:33:57.826Z,9.30
2023-03-02T10:36:38.647Z,7.15
2023-03-02T10:39:13.047Z,8.63
2023-03-02T10:42:03.027Z,6.00
2023-03-02T10:44:39.390Z,7.05
2023-03-02T10:47:07.643Z,5.88
2023-03-02T10:49:39.346Z,7.68
2023-03-02T10:52:13.358Z,7.78
2023-03-02T10:54:40.764Z,6.70
2023-03-02T10:57:35.159Z,6.50
2023-03-02T11:00:13.487Z,7.95
2023-03-02T11:03:04.794Z,8.02
2023-03-02T11:05:39.857Z,6.80
2023-03-02T11:08:16.586Z,6.40
2023-03-02T11:11:01.227Z,7.00
2023-03-02T11:13:29.644Z,7.40
2023-03-02T11:16:02.201Z,5.97
2023-03-02T11:18:37.381Z,7.03
2023-03-02T11:21:11.574Z,4.77
2023-03-02T11:24:13.885Z,5.47
2023-03-02T11:26:54.909Z,6.20
2023-03-02T11:29:46.664Z,5.97
2023-03-02T11:32:29.029Z,6.95
2023-03-02T11:35:09.647Z,6.00
2023-03-02T11:37:48.119Z,6.43
2023-03-02T11:40:52.661Z,5.78
2023-03-02T11:43:19.379Z,5.90
2023-03-02T11:45:52.202Z,6.28
2023-03-02T11:48:25.861Z,6.07
2023-03-02T11:51:04.210Z,6.00
2023-03-02T11:53:46.830Z,6.18
2023-03-02T11:56:13.756Z,5.38
2023-03-02T11:58:43.488Z,5.30
2023-03-02T12:01:20.860Z,5.97
2023-03-02T12:03:49.514Z,6.45
2023-03-02T12:06:22.188Z,5.57
2023-03-02T12:08:52.535Z,5.50
2023-03-02T12:11:18.956Z,5.25
2023-03-02T12:13:49.331Z,6.10
2023-03-02T12:16:36.538Z,6.05
2023-03-02T12:19:34.282Z,5.18
2023-03-02T12:22:07.269Z,4.28
2023-03-02T12:24:36.229Z,4.35
2023-03-02T12:27:25.735Z,4.47
2023-03-02T12:30:10.780Z,4.95
2023-03-02T12:32:38.004Z,4.85
2023-03-02T12:35:07.409Z,4.60
2023-03-02T12:38:06.658Z,5.45
2023-03-02T12:40:53.539Z,5.07
2023-03-02T12:43:26.693Z,5.95
2023-03-02T12:46:29.003Z,5.00
2023-03-02T12:49:35.344Z,3.35
2023-03-02T12:52:18.055Z,3.53
2023-03-02T12:54:44.567Z,4.77
2023-03-02T12:57:16.724Z,4.00
2023-03-02T12:59:50.859Z,4.50
2023-03-02T13:02:26.365Z,4.82
2023-03-02T13:04:56.395Z,3.97
2023-03-02T13:07:26.600Z,3.00
2023-03-02T13:09:56.990Z,3.15
2023-03-02T13:12:28.808Z,4.68
2023-03-02T13:14:58.323Z,6.32
2023-03-02T13:17:33.177Z,7.00
2023-03-02T13:20:03.405Z,6.87
2023-03-02T13:22:30.252Z,7.05
2023-03-02T13:25:01.997Z,6.40
2023-03-02T13:27:28.631Z,6.40
2023-03-02T13:29:56.586Z,6.07
2023-03-02T13:32:23.069Z,6.90
2023-03-02T13:34:55.736Z,6.57
2023-03-02T13:37:34.567Z,7.18
2023-03-02T13:40:04.231Z,6.53
2023-03-02T13:42:41.127Z,7.18
2023-03-02T13:45:31.780Z,6.70
2023-03-02T13:48:00.229Z,6.35
2023-03-02T13:50:32.082Z,7.10
2023-03-02T13:53:03.999Z,6.22
2023-03-02T13:55:30.541Z,6.63
2023-03-02T13:57:58.173Z,7.13
2023-03-02T14:00:32.379Z,6.15
2023-03-02T14:02:59.082Z,6.10
2023-03-02T14:05:33.079Z,7.10
2023-03-02T14:08:00.399Z,6.65
2023-03-02T14:10:27.149Z,5.57
2023-03-02T14:13:08.517Z,6.18
2023-03-02T14:15:40.416Z,6.75
2023-03-02T14:18:18.394Z,7.28
2023-03-02T14:20:44.827Z,6.22
2023-03-02T14:23:11.337Z,5.57
2023-03-02T14:25:37.908Z,5.70
2023-03-02T14:28:04.631Z,5.90
2023-03-02T14:30:31.205Z,6.25
2023-03-02T14:32:57.688Z,5.78
2023-03-02T14:35:25.402Z,6.53
2023-03-02T14:37:51.897Z,6.35
2023-03-02T14:40:27.792Z,5.85
2023-03-02T14:42:54.506Z,6.15
2023-03-02T14:45:21.752Z,5.82
2023-03-02T14:47:48.924Z,5.63
2023-03-02T14:50:16.945Z,5.55
2023-03-02T14:52:49.449Z,5.85
2023-03-02T14:55:25.852Z,5.70
2023-03-02T14:57:56.084Z,5.05
2023-03-02T15:00:23.199Z,5.70
2023-03-02T15:02:50.334Z,5.90
2023-03-02T15:05:17.245Z,5.43
2023-03-02T15:07:43.735Z,5.07
2023-03-02T15:10:21.834Z,5.80
2023-03-02T15:12:48.362Z,5.20
2023-03-02T15:15:14.864Z,5.63
2023-03-02T15:17:41.736Z,5.90
2023-03-02T15:20:13.226Z,5.85
2023-03-02T15:22:39.799Z,5.68
2023-03-02T15:25:06.485Z,6.47
2023-03-02T15:27:32.982Z,6.53
2023-03-02T15:30:02.345Z,6.50
2023-03-02T15:32:28.912Z,5.68
2023-03-02T15:34:55.480Z,6.20
2023-03-02T15:37:22.113Z,7.80
2023-03-02T15:39:53.350Z,7.07
2023-03-02T15:42:19.939Z,7.63
2023-03-02T15:44:46.379Z,6.78
2023-03-02T15:47:12.838Z,5.85
2023-03-02T15:49:39.386Z,5.60
2023-03-02T15:52:05.861Z,5.72
2023-03-02T15:54:32.302Z,6.10
2023-03-02T15:56:58.803Z,5.97
2023-03-02T15:59:28.292Z,5.18
2023-03-02T16:01:59.327Z,4.43
2023-03-02T16:04:27.002Z,5.25
2023-03-02T16:06:54.839Z,4.90
2023-03-02T16:09:21.878Z,5.22
2023-03-02T16:11:49.118Z,6.07
2023-03-02T16:14:15.704Z,5.53
2023-03-02T16:16:45.518Z,5.88
2023-03-02T16:19:14.347Z,5.75
2023-03-02T16:21:40.858Z,6.55
2023-03-02T16:24:08.544Z,6.00
2023-03-02T16:26:37.850Z,5.83
2023-03-02T16:29:08.182Z,6.57
2023-03-02T16:31:37.808Z,7.07
2023-03-02T16:34:09.576Z,6.15
2023-03-02T16:36:37.571Z,7.57
2023-03-02T16:39:04.672Z,6.77
2023-03-02T16:41:34.565Z,7.28
2023-03-02T16:44:01.143Z,6.55
2023-03-02T16:46:31.320Z,8.57
2023-03-02T16:48:58.822Z,7.40
2023-03-02T16:51:25.809Z,7.77
2023-03-02T16:53:52.585Z,7.82
2023-03-02T16:56:19.196Z,7.93
2023-03-02T16:58:45.676Z,8.50
2023-03-02T17:01:15.337Z,8.27
2023-03-02T17:03:42.381Z,7.73
2023-03-02T17:06:11.033Z,7.78
2023-03-02T17:08:38.049Z,7.63
2023-03-02T17:11:04.763Z,8.30
2023-03-02T17:13:31.440Z,7.32
2023-03-02T17:15:59.048Z,6.80
2023-03-02T17:18:27.547Z,8.32
2023-03-02T17:20:55.935Z,7.25
2023-03-02T17:23:23.271Z,6.97
2023-03-02T17:25:49.811Z,6.82
2023-03-02T17:28:16.832Z,7.17
2023-03-02T17:30:44.412Z,7.75
2023-03-02T17:33:11.193Z,6.72
2023-03-02T17:35:38.088Z,6.57
2023-03-02T17:38:04.918Z,7.53
2023-03-02T17:40:32.085Z,7.17
2023-03-02T17:42:58.568Z,6.55
2023-03-02T17:45:27.651Z,7.30
2023-03-02T17:47:54.829Z,6.15
2023-03-02T17:50:22.801Z,6.20
2023-03-02T17:52:49.418Z,6.73
2023-03-02T17:55:16.351Z,6.65
2023-03-02T17:57:42.773Z,6.78
2023-03-02T18:00:14.024Z,6.72
2023-03-02T18:02:40.567Z,6.78
2023-03-02T18:05:10.027Z,6.83
2023-03-02T18:07:37.209Z,5.65
2023-03-02T18:10:05.157Z,6.82
2023-03-02T18:12:31.631Z,6.85
2023-03-02T18:14:58.035Z,6.00
2023-03-02T18:17:24.507Z,6.73
2023-03-02T18:19:50.972Z,5.72
2023-03-02T18:22:17.482Z,6.20
2023-03-02T18:24:43.924Z,6.63
2023-03-02T18:27:10.337Z,5.80
2023-03-02T18:29:36.754Z,6.63
2023-03-02T18:32:03.685Z,5.50
2023-03-02T18:34:30.262Z,5.97
2023-03-02T18:36:56.663Z,5.05
2023-03-02T18:39:23.119Z,4.28
2023-03-02T18:41:49.634Z,5.80
2023-03-02T18:44:16.280Z,5.32
2023-03-02T18:46:44.785Z,5.93
2023-03-02T18:49:11.317Z,5.85
2023-03-02T18:51:37.799Z,6.15
2023-03-02T18:54:04.240Z,4.90
2023-03-02T18:56:30.633Z,5.05
2023-03-02T18:58:57.090Z,5.05
2023-03-02T19:01:23.519Z,6.40
2023-03-02T19:03:50.148Z,6.50
2023-03-02T19:06:20.533Z,5.77
2023-03-02T19:08:47.986Z,6.45
2023-03-02T19:11:14.448Z,7.18
2023-03-02T19:13:41.031Z,5.50
2023-03-02T19:16:07.784Z,6.03
2023-03-02T19:18:34.507Z,5.83
2023-03-02T19:21:01.406Z,5.38
2023-03-02T19:23:28.035Z,5.40
2023-03-02T19:25:54.461Z,6.13
2023-03-02T19:28:21.834Z,6.53
2023-03-02T19:30:49.371Z,5.60
2023-03-02T19:33:16.621Z,6.18
2023-03-02T19:35:44.616Z,5.63
2023-03-02T19:38:11.062Z,5.80
2023-03-02T19:40:37.720Z,6.55
2023-03-02T19:43:05.195Z,6.87
2023-03-02T19:45:34.791Z,6.82
2023-03-02T19:48:02.344Z,7.30
2023-03-02T19:50:29.215Z,6.43
2023-03-02T19:52:56.557Z,6.38
2023-03-02T19:55:24.307Z,6.70
2023-03-02T19:57:56.566Z,6.88
2023-03-02T20:00:24.194Z,7.22
2023-03-02T20:02:50.771Z,6.20
2023-03-02T20:05:17.480Z,7.18
2023-03-02T20:07:44.457Z,6.93
2023-03-02T20:10:13.249Z,6.88
2023-03-02T20:12:39.648Z,7.40
2023-03-02T20:15:06.682Z,7.05
2023-03-02T20:17:33.953Z,7.45
2023-03-02T20:20:01.253Z,7.87
2023-03-02T20:22:27.877Z,7.80
2023-03-02T20:24:54.395Z,8.88
2023-03-02T20:27:21.223Z,7.85
2023-03-02T20:29:47.702Z,8.77
2023-03-02T20:32:14.254Z,7.70
2023-03-02T20:34:43.330Z,7.88
2023-03-02T20:37:12.382Z,9.57
2023-03-02T20:39:40.748Z,8.95
2023-03-02T20:42:07.746Z,8.88
2023-03-02T20:44:34.643Z,8.90
2023-03-02T20:47:06.120Z,8.13
2023-03-02T20:49:32.622Z,8.95
2023-03-02T20:51:59.761Z,10.02
2023-03-02T20:54:33.116Z,11.25
2023-03-02T20:56:59.683Z,9.37
2023-03-02T20:59:27.201Z,9.45
2023-03-02T21:01:53.786Z,10.90
2023-03-02T21:04:20.906Z,10.27
2023-03-02T21:06:47.924Z,11.60
2023-03-02T21:09:14.900Z,10.57
2023-03-02T21:11:41.351Z,10.48
2023-03-02T21:14:08.073Z,10.38
2023-03-02T21:16:38.504Z,10.10
2023-03-02T21:19:08.742Z,11.52
2023-03-02T21:21:41.786Z,11.97
2023-03-02T21:24:10.138Z,11.60
2023-03-02T21:26:36.879Z,10.68
2023-03-02T21:29:05.245Z,11.05
2023-03-02T21:31:32.273Z,11.75
2023-03-02T21:34:00.211Z,11.27
2023-03-02T21:36:27.174Z,11.75
2023-03-02T21:38:54.593Z,10.82
2023-03-02T21:41:21.988Z,11.88
2023-03-02T21:43:49.300Z,11.40
2023-03-02T21:46:19.692Z,11.47
2023-03-02T21:48:46.807Z,11.10
2023-03-02T21:51:13.766Z,12.82
2023-03-02T21:53:40.549Z,11.23
2023-03-02T21:56:07.913Z,12.55
2023-03-02T21:58:34.587Z,11.17
2023-03-02T22:01:01.454Z,12.73
2023-03-02T22:03:27.935Z,12.27
2023-03-02T22:05:54.437Z,11.93
2023-03-02T22:08:21.706Z,11.07
2023-03-02T22:10:51.692Z,11.33
2023-03-02T22:13:31.433Z,11.50
2023-03-02T22:16:11.469Z,11.95
2023-03-02T22:18:38.613Z,11.00
2023-03-02T22:21:30.685Z,11.88
2023-03-02T22:24:09.460Z,10.07
2023-03-02T22:26:45.785Z,11.93
2023-03-02T22:29:25.339Z,10.93
2023-03-02T22:31:54.187Z,10.35
2023-03-02T22:34:27.497Z,9.45
2023-03-02T22:37:02.923Z,8.90
2023-03-02T22:39:33.506Z,9.63
2023-03-02T22:42:15.108Z,8.93
2023-03-02T22:44:42.782Z,8.25
2023-03-02T22:47:18.634Z,8.68
2023-03-02T22:49:46.276Z,8.90
2023-03-02T22:52:21.808Z,9.00
2023-03-02T22:54:48.815Z,8.27
2023-03-02T22:57:29.919Z,8.43
2023-03-02T23:00:11.626Z,7.57
2023-03-02T23:02:42.390Z,8.40
2023-03-02T23:05:26.850Z,8.52
2023-03-02T23:08:21.038Z,8.55
2023-03-02T23:10:49.113Z,8.55
2023-03-02T23:13:18.566Z,8.32
2023-03-02T23:15:47.047Z,8.30
2023-03-02T23:18:22.228Z,7.65
2023-03-02T23:20:50.063Z,8.63
2023-03-02T23:23:17.396Z,6.55
2023-03-02T23:25:44.449Z,6.78
2023-03-02T23:28:11.084Z,8.03
2023-03-02T23:30:37.903Z,7.53
2023-03-02T23:33:04.686Z,8.07
2023-03-02T23:35:31.528Z,7.60
2023-03-02T23:37:58.623Z,7.30
2023-03-02T23:40:25.012Z,7.03
2023-03-02T23:42:51.442Z,7.47
2023-03-02T23:45:17.962Z,7.22
2023-03-02T23:47:44.996Z,6.90
2023-03-02T23:50:13.226Z,7.07
2023-03-02T23:52:40.967Z,7.43
2023-03-02T23:55:08.837Z,6.40
2023-03-02T23:57:35.282Z,6.07
